Time;durP1;ratioP1;P1;durP2;ratioP2;P2;SDS_P1;SDS_P2;PMS_P1;PMS_P2;Temp;Humidity;BMP_temperature;BMP_pressure;BME280_temperature;BME280_humidity;BME280_pressure;Samples;Min_cycle;Max_cycle;Signal;HPM_P1;HPM_P2
2020/12/14 00:00:13;;;;;;;6.68;4.82;;;;;;;5.23;83.98;98928.56;5052233;28;20932;-67
2020/12/14 00:02:41;;;;;;;7.95;5.50;;;;;;;5.16;84.29;98927.13;5093843;28;20189;-68
2020/12/14 00:05:08;;;;;;;8.50;5.72;;;;;;;5.29;84.27;98926.53;5094402;28;20244;-67
2020/12/14 00:07:35;;;;;;;9.07;5.30;;;;;;;5.07;85.15;98932.03;5094539;28;20210;-67
2020/12/14 00:10:02;;;;;;;10.98;7.30;;;;;;;5.01;86.29;98922.47;5094730;28;20601;-67
2020/12/14 00:12:44;;;;;;;13.27;8.90;;;;;;;4.99;87.19;98937.69;5084136;28;20243;-68
2020/12/14 00:15:10;;;;;;;13.52;8.98;;;;;;;4.85;88.08;98951.66;5011580;28;20276;-68
2020/12/14 00:17:36;;;;;;;12.07;8.25;;;;;;;4.84;87.84;98941.94;5012509;28;20202;-67
2020/12/14 00:20:03;;;;;;;14.98;8.55;;;;;;;4.82;87.87;98946.47;5011996;28;20316;-67
2020/12/14 00:22:30;;;;;;;11.93;8.32;;;;;;;4.72;88.78;98947.81;5012161;28;20209;-67
2020/12/14 00:24:58;;;;;;;10.93;7.70;;;;;;;4.74;88.82;98956.63;5011718;28;20210;-67
2020/12/14 00:27:24;;;;;;;10.80;7.85;;;;;;;4.94;88.58;98958.38;5011196;28;20232;-68
2020/12/14 00:29:52;;;;;;;10.30;7.43;;;;;;;4.88;88.29;98948.84;5024973;28;20200;-68
2020/12/14 00:32:18;;;;;;;10.15;6.25;;;;;;;4.98;87.98;98946.66;5031564;28;20209;-68
2020/12/14 00:34:45;;;;;;;8.48;5.82;;;;;;;5.10;86.63;98942.53;5031608;28;20213;-68
2020/12/14 00:37:11;;;;;;;6.55;5.07;;;;;;;5.36;83.65;98934.19;5031443;28;20209;-67
2020/12/14 00:39:38;;;;;;;7.97;5.07;;;;;;;5.62;81.99;98929.41;5030767;28;20202;-67
2020/12/14 00:42:05;;;;;;;8.15;5.88;;;;;;;5.81;80.16;98916.88;5026584;28;20700;-67
2020/12/14 00:44:31;;;;;;;5.47;4.00;;;;;;;5.88;80.07;98916.56;5011788;28;20599;-68
2020/12/14 00:46:58;;;;;;;7.72;5.00;;;;;;;5.77;80.19;98911.75;5011271;28;20206;-67
2020/12/14 00:49:25;;;;;;;6.45;5.75;;;;;;;5.92;79.51;98904.78;5011881;28;20209;-68
2020/12/14 00:51:51;;;;;;;7.88;5.57;;;;;;;5.77;79.08;98906.44;5031860;28;20202;-68
2020/12/14 00:54:17;;;;;;;7.80;5.03;;;;;;;5.69;79.50;98908.59;5073018;28;20209;-68
2020/12/14 00:56:44;;;;;;;7.53;4.40;;;;;;;5.55;80.01;98904.78;5073448;28;20614;-67
2020/12/14 00:59:10;;;;;;;7.53;4.30;;;;;;;5.61;79.90;98900.97;5072861;28;20594;-68
2020/12/14 01:01:37;;;;;;;8.55;4.45;;;;;;;5.72;79.52;98919.13;5072993;28;20221;-68
2020/12/14 01:04:04;;;;;;;9.80;5.32;;;;;;;5.82;78.81;98909.72;5073038;28;20286;-69
2020/12/14 01:06:31;;;;;;;6.60;4.45;;;;;;;5.81;78.45;98916.00;5072807;28;20203;-68
2020/12/14 01:08:57;;;;;;;7.80;4.28;;;;;;;5.73;78.87;98910.19;5073212;28;20313;-67
2020/12/14 01:11:27;;;;;;;6.65;4.82;;;;;;;5.69;79.16;98917.47;5072739;28;20293;-68
2020/12/14 01:13:54;;;;;;;7.72;5.15;;;;;;;5.71;78.96;98914.72;5072615;28;20190;-68
2020/12/14 01:16:21;;;;;;;9.85;5.10;;;;;;;5.78;78.03;98916.16;5073039;28;20535;-68
2020/12/14 01:18:47;;;;;;;11.98;4.30;;;;;;;5.93;77.27;98903.84;5072630;28;20205;-67
2020/12/14 01:21:15;;;;;;;6.57;4.75;;;;;;;6.03;76.26;98906.00;5072339;28;20226;-67
2020/12/14 01:23:41;;;;;;;7.93;5.70;;;;;;;6.12;76.07;98902.00;5072527;28;20232;-67
2020/12/14 01:26:07;;;;;;;6.50;4.35;;;;;;;6.16;75.79;98889.34;5072446;28;20204;-67
2020/12/14 01:28:33;;;;;;;6.22;4.45;;;;;;;6.09;75.85;98891.47;5072660;28;20576;-67
2020/12/14 01:31:00;;;;;;;6.32;4.80;;;;;;;6.13;75.34;98900.19;5072354;28;20204;-67
2020/12/14 01:33:26;;;;;;;6.75;4.65;;;;;;;6.39;74.60;98889.00;5072655;28;20556;-67
2020/12/14 01:35:52;;;;;;;6.05;4.90;;;;;;;6.29;75.03;98886.88;5072733;28;20277;-67
2020/12/14 01:38:19;;;;;;;7.70;4.03;;;;;;;6.15;75.49;98879.59;5084365;28;20245;-67
2020/12/14 01:40:45;;;;;;;5.25;4.05;;;;;;;6.35;74.79;98878.56;5091550;28;20250;-67
2020/12/14 01:43:12;;;;;;;6.20;4.85;;;;;;;6.09;75.94;98885.25;5076187;28;20189;-67
2020/12/14 01:45:38;;;;;;;6.40;5.20;;;;;;;6.05;76.18;98871.19;5072474;28;20207;-68
2020/12/14 01:48:07;;;;;;;9.35;4.95;;;;;;;6.08;76.63;98888.88;5072521;28;20536;-67
2020/12/14 01:50:33;;;;;;;8.68;5.38;;;;;;;5.98;76.56;98881.31;5071926;28;20287;-68
2020/12/14 01:53:00;;;;;;;6.43;4.88;;;;;;;5.97;76.77;98892.06;5072522;28;20626;-67
2020/12/14 01:55:32;;;;;;;6.97;4.85;;;;;;;6.11;76.05;98891.41;5072306;28;20204;-68
2020/12/14 01:57:58;;;;;;;6.43;4.30;;;;;;;6.24;75.71;98889.78;5072347;28;20254;-67
2020/12/14 02:00:24;;;;;;;6.30;4.38;;;;;;;6.32;74.90;98895.63;5071844;28;20268;-68
2020/12/14 02:02:50;;;;;;;7.57;4.15;;;;;;;6.26;75.22;98902.16;5072102;28;20201;-67
2020/12/14 02:05:17;;;;;;;8.82;4.20;;;;;;;6.29;74.82;98901.16;5072394;28;20573;-67
2020/12/14 02:07:46;;;;;;;4.68;4.28;;;;;;;6.18;75.63;98900.81;5076414;28;20286;-68
2020/12/14 02:10:12;;;;;;;8.27;5.45;;;;;;;6.19;76.38;98907.88;5092236;28;20192;-69
2020/12/14 02:12:39;;;;;;;8.55;4.90;;;;;;;6.13;76.47;98900.19;5082330;28;20238;-67
2020/12/14 02:15:06;;;;;;;6.30;4.78;;;;;;;6.11;76.42;98904.75;5071905;28;20199;-67
2020/12/14 02:17:32;;;;;;;5.25;3.85;;;;;;;6.08;76.46;98895.06;5083582;28;20211;-67
2020/12/14 02:19:59;;;;;;;7.07;4.50;;;;;;;6.17;75.43;98907.09;5091659;28;20188;-67
2020/12/14 02:22:27;;;;;;;7.90;3.80;;;;;;;6.14;75.06;98893.91;5091847;28;20295;-67
2020/12/14 02:24:56;;;;;;;4.88;4.30;;;;;;;6.23;74.54;98893.44;5092223;28;20590;-68
2020/12/14 02:27:23;;;;;;;5.97;3.58;;;;;;;6.29;74.20;98881.53;5092349;28;20195;-67
2020/12/14 02:29:49;;;;;;;5.05;4.32;;;;;;;6.50;73.25;98891.13;5092131;28;20509;-67
2020/12/14 02:32:17;;;;;;;6.30;3.95;;;;;;;6.48;73.40;98887.66;5091820;28;20176;-67
2020/12/14 02:34:44;;;;;;;7.10;4.03;;;;;;;6.59;72.73;98885.28;5092274;28;20298;-68
2020/12/14 02:37:11;;;;;;;8.82;4.68;;;;;;;6.56;72.93;98890.81;5092162;28;20304;-67
2020/12/14 02:39:38;;;;;;;4.07;3.10;;;;;;;6.51;73.23;98879.47;5089752;28;20282;-67
2020/12/14 02:42:07;;;;;;;5.85;4.22;;;;;;;6.55;73.17;98882.84;5092268;28;20212;-67
2020/12/14 02:44:34;;;;;;;7.22;4.35;;;;;;;6.47;73.36;98883.28;5071235;28;20608;-67
2020/12/14 02:47:00;;;;;;;6.93;3.97;;;;;;;6.48;73.26;98877.81;5071876;28;20683;-67
2020/12/14 02:49:26;;;;;;;8.13;5.28;;;;;;;6.65;72.70;98873.41;5071564;28;20211;-67
2020/12/14 02:51:52;;;;;;;6.15;3.40;;;;;;;6.68;72.52;98866.06;5074349;28;20291;-68
2020/12/14 02:54:19;;;;;;;3.83;3.47;;;;;;;6.65;72.60;98866.25;5075441;28;20250;-67
2020/12/14 02:56:45;;;;;;;6.43;4.35;;;;;;;6.65;73.03;98862.72;5075405;28;20203;-67
2020/12/14 02:59:12;;;;;;;7.70;3.63;;;;;;;6.57;73.31;98856.91;5075139;28;20228;-68
2020/12/14 03:01:39;;;;;;;5.35;3.40;;;;;;;6.66;73.13;98859.06;5075285;28;20686;-67
2020/12/14 03:04:05;;;;;;;5.50;3.70;;;;;;;6.56;73.26;98857.84;5075136;28;20272;-67
2020/12/14 03:06:32;;;;;;;5.35;3.30;;;;;;;6.58;73.35;98856.81;5074605;28;20208;-67
2020/12/14 03:08:58;;;;;;;4.15;3.40;;;;;;;6.70;72.91;98846.41;5092362;28;20196;-67
2020/12/14 03:11:25;;;;;;;8.45;3.80;;;;;;;6.48;73.90;98842.19;5095661;28;20242;-67
2020/12/14 03:13:51;;;;;;;7.10;5.32;;;;;;;6.48;74.16;98844.88;5095228;28;20200;-67
2020/12/14 03:16:21;;;;;;;5.50;3.50;;;;;;;6.50;73.89;98832.28;5095146;28;20286;-68
2020/12/14 03:18:47;;;;;;;5.55;3.63;;;;;;;6.55;73.77;98838.25;5095237;28;20224;-67
2020/12/14 03:21:14;;;;;;;6.82;4.10;;;;;;;6.36;74.30;98833.03;5094903;28;20307;-67
2020/12/14 03:23:40;;;;;;;7.80;4.43;;;;;;;6.43;74.57;98839.78;5095088;28;20192;-67
2020/12/14 03:26:06;;;;;;;6.22;3.58;;;;;;;6.56;74.03;98837.31;5095026;28;20266;-67
2020/12/14 03:28:32;;;;;;;5.28;3.92;;;;;;;6.53;73.95;98837.47;5094898;28;20234;-67
2020/12/14 03:30:59;;;;;;;4.85;3.45;;;;;;;6.36;74.92;98846.41;5094909;28;20231;-67
2020/12/14 03:33:26;;;;;;;8.27;4.78;;;;;;;6.34;74.88;98837.59;5095321;28;20283;-67
2020/12/14 03:35:52;;;;;;;5.43;4.15;;;;;;;6.44;74.72;98848.66;5088215;28;20283;-67
2020/12/14 03:38:18;;;;;;;4.65;3.45;;;;;;;6.51;74.08;98849.19;5081818;28;20692;-66
2020/12/14 03:40:44;;;;;;;6.47;2.92;;;;;;;6.50;74.33;98844.81;5094608;28;20204;-66
2020/12/14 03:43:11;;;;;;;4.55;3.50;;;;;;;6.68;73.49;98839.31;5090574;28;20189;-67
2020/12/14 03:45:37;;;;;;;6.38;3.45;;;;;;;6.57;74.04;98851.53;5074627;28;20185;-66
2020/12/14 03:48:04;;;;;;;10.57;3.58;;;;;;;6.60;74.06;98833.53;5074241;28;20205;-67
2020/12/14 03:50:31;;;;;;;3.45;3.08;;;;;;;6.63;74.15;98843.19;5074644;28;20272;-67
2020/12/14 03:52:57;;;;;;;10.50;4.57;;;;;;;6.66;73.76;98843.03;5074548;28;20196;-67
2020/12/14 03:55:23;;;;;;;3.72;2.60;;;;;;;6.71;73.68;98848.13;5074592;28;20678;-67
2020/12/14 03:57:49;;;;;;;5.72;2.90;;;;;;;6.58;74.17;98855.94;5074770;28;20291;-67
2020/12/14 04:00:16;;;;;;;4.82;2.60;;;;;;;6.61;74.03;98863.81;5073594;28;20228;-67
2020/12/14 04:02:42;;;;;;;3.75;2.92;;;;;;;6.76;73.17;98848.72;5072822;28;20200;-67
2020/12/14 04:05:09;;;;;;;2.50;2.22;;;;;;;6.79;72.91;98860.16;5074248;28;20246;-67
2020/12/14 04:07:36;;;;;;;6.30;2.90;;;;;;;6.75;73.29;98857.72;5074215;28;20188;-67
2020/12/14 04:10:03;;;;;;;4.40;2.80;;;;;;;6.68;73.44;98857.19;5073952;28;20307;-67
2020/12/14 04:12:29;;;;;;;5.72;2.95;;;;;;;6.73;73.58;98855.13;5074178;28;20196;-67
2020/12/14 04:14:56;;;;;;;3.08;2.67;;;;;;;6.69;73.26;98858.91;5074468;28;20213;-67
2020/12/14 04:17:22;;;;;;;5.38;3.10;;;;;;;6.64;73.63;98853.78;5073877;28;20224;-68
2020/12/14 04:19:48;;;;;;;6.70;3.10;;;;;;;6.76;73.47;98848.72;5074297;28;20278;-67
2020/12/14 04:22:14;;;;;;;6.93;3.40;;;;;;;6.78;73.45;98849.50;5074036;28;20201;-67
2020/12/14 04:24:41;;;;;;;5.90;3.70;;;;;;;6.72;73.25;98848.03;5073750;28;20197;-67
2020/12/14 04:27:07;;;;;;;7.18;3.33;;;;;;;6.74;73.03;98851.50;5074152;28;20189;-67
2020/12/14 04:29:33;;;;;;;4.65;3.20;;;;;;;6.72;73.00;98853.41;5073826;28;20672;-68
2020/12/14 04:31:59;;;;;;;9.10;4.47;;;;;;;6.83;72.52;98852.81;5073926;28;20181;-67
2020/12/14 04:34:26;;;;;;;8.15;3.85;;;;;;;6.65;73.43;98855.53;5075066;28;20624;-67
2020/12/14 04:36:52;;;;;;;4.00;3.03;;;;;;;6.77;73.00;98855.81;5073219;28;20697;-67
2020/12/14 04:39:19;;;;;;;3.58;2.65;;;;;;;6.66;73.18;98846.56;5087045;28;20222;-67
2020/12/14 04:41:46;;;;;;;4.75;3.10;;;;;;;6.64;73.37;98848.44;5093664;28;20273;-68
2020/12/14 04:44:13;;;;;;;4.85;2.90;;;;;;;6.48;74.20;98850.22;5094015;28;20188;-68
2020/12/14 04:46:39;;;;;;;3.80;2.65;;;;;;;6.52;74.16;98853.63;5093959;28;20214;-68
2020/12/14 04:49:07;;;;;;;2.60;2.40;;;;;;;6.62;73.87;98854.81;5093959;28;20240;-67
2020/12/14 04:51:37;;;;;;;5.78;4.10;;;;;;;6.59;74.04;98850.50;5093531;28;20604;-67
2020/12/14 04:54:04;;;;;;;8.68;3.80;;;;;;;6.67;73.80;98853.66;5093528;28;20191;-68
2020/12/14 04:56:35;;;;;;;7.20;4.88;;;;;;;6.78;73.11;98847.69;5093502;28;20196;-68
2020/12/14 04:59:02;;;;;;;12.68;5.00;;;;;;;6.81;72.80;98844.00;5093365;28;20359;-68
2020/12/14 05:01:30;;;;;;;3.25;2.65;;;;;;;6.86;72.23;98841.94;5093913;28;20262;-67
2020/12/14 05:03:56;;;;;;;3.50;3.20;;;;;;;7.07;71.58;98848.75;5093398;28;20227;-68
2020/12/14 05:06:22;;;;;;;3.63;3.05;;;;;;;6.99;71.57;98834.09;5078796;28;20236;-66
2020/12/14 05:08:48;;;;;;;3.88;2.85;;;;;;;7.02;71.15;98834.78;5073325;28;20192;-67
2020/12/14 05:11:14;;;;;;;3.08;2.20;;;;;;;7.00;71.43;98833.16;5072924;28;20276;-67
2020/12/14 05:13:41;;;;;;;2.30;2.10;;;;;;;7.13;70.71;98836.88;5072899;28;20283;-66
2020/12/14 05:16:08;;;;;;;4.35;2.38;;;;;;;7.07;70.96;98843.41;5072742;28;20250;-68
2020/12/14 05:18:34;;;;;;;3.85;2.42;;;;;;;7.00;70.67;98846.53;5072479;28;20254;-68
2020/12/14 05:21:03;;;;;;;5.22;2.40;;;;;;;6.96;71.18;98850.31;5072745;28;20251;-68
2020/12/14 05:23:30;;;;;;;8.63;2.78;;;;;;;7.01;70.78;98856.28;5073069;28;20254;-68
2020/12/14 05:26:06;;;;;;;5.82;3.30;;;;;;;7.12;70.55;98853.00;5071807;28;20208;-68
2020/12/14 05:28:33;;;;;;;5.70;3.10;;;;;;;7.20;70.27;98848.94;5072059;28;20212;-68
2020/12/14 05:30:59;;;;;;;6.25;3.20;;;;;;;7.28;69.86;98849.41;5072216;28;20268;-68
2020/12/14 05:33:28;;;;;;;9.23;3.88;;;;;;;7.32;69.57;98847.38;5072269;28;20250;-68
2020/12/14 05:35:54;;;;;;;5.57;3.13;;;;;;;7.28;69.92;98853.88;5077333;28;20196;-68
2020/12/14 05:38:22;;;;;;;6.07;3.47;;;;;;;7.42;69.72;98845.94;5072080;28;20287;-68
2020/12/14 05:40:51;;;;;;;4.72;3.20;;;;;;;7.34;69.87;98847.31;5072010;28;20217;-68
2020/12/14 05:43:19;;;;;;;6.15;3.80;;;;;;;7.36;69.53;98842.72;5080800;28;20242;-68
2020/12/14 05:45:47;;;;;;;11.60;5.47;;;;;;;7.36;70.19;98845.41;5091978;28;20281;-67
2020/12/14 05:48:24;;;;;;;9.73;4.18;;;;;;;7.38;69.64;98841.69;5092617;28;20188;-67
2020/12/14 05:50:53;;;;;;;7.07;3.63;;;;;;;7.30;69.50;98834.09;5092714;28;20589;-67
2020/12/14 05:53:20;;;;;;;6.55;4.32;;;;;;;7.39;69.44;98838.06;5092366;28;20289;-67
2020/12/14 05:55:47;;;;;;;11.90;6.63;;;;;;;7.22;69.62;98839.03;5091911;28;20210;-68
2020/12/14 05:58:15;;;;;;;8.55;5.30;;;;;;;7.17;70.80;98841.09;5092304;28;20294;-67
2020/12/14 06:00:43;;;;;;;6.22;3.83;;;;;;;7.20;69.97;98837.38;5091781;28;20638;-67
2020/12/14 06:03:10;;;;;;;8.20;3.30;;;;;;;7.09;70.09;98840.66;5092437;28;20681;-68
2020/12/14 06:05:39;;;;;;;7.00;3.55;;;;;;;7.02;70.61;98841.97;5088611;28;20211;-66
2020/12/14 06:08:25;;;;;;;11.18;6.97;;;;;;;7.13;70.43;98842.22;5051573;28;20276;-67
2020/12/14 06:10:52;;;;;;;7.47;4.07;;;;;;;7.03;70.69;98852.59;5052168;28;20588;-67
2020/12/14 06:13:22;;;;;;;5.63;4.28;;;;;;;7.02;71.14;98847.31;5051392;28;20185;-68
2020/12/14 06:15:50;;;;;;;5.43;4.30;;;;;;;7.03;70.38;98841.00;5062918;28;20189;-68
2020/12/14 06:18:21;;;;;;;10.73;4.15;;;;;;;7.00;70.95;98847.38;5080173;28;20240;-68
2020/12/14 06:20:48;;;;;;;7.60;5.03;;;;;;;7.06;71.35;98851.53;5071383;28;20223;-67
2020/12/14 06:23:17;;;;;;;6.20;4.53;;;;;;;7.04;71.21;98854.31;5070700;28;20554;-68
2020/12/14 06:25:44;;;;;;;6.40;4.50;;;;;;;6.96;71.69;98851.16;5070521;28;20212;-67
2020/12/14 06:28:29;;;;;;;4.20;3.80;;;;;;;7.07;71.26;98842.56;5050965;28;20280;-67
2020/12/14 06:30:56;;;;;;;6.20;4.05;;;;;;;6.96;71.63;98844.97;5051618;28;20285;-67
2020/12/14 06:33:37;;;;;;;8.75;5.18;;;;;;;6.81;71.92;98850.22;5052718;28;20193;-68
2020/12/14 06:36:17;;;;;;;8.50;5.05;;;;;;;6.86;71.92;98844.63;5070694;28;20215;-67
2020/12/14 06:38:45;;;;;;;8.80;4.63;;;;;;;6.84;71.58;98842.00;5050969;28;20212;-68
2020/12/14 06:41:13;;;;;;;9.75;4.47;;;;;;;6.72;72.10;98845.38;5051063;28;20588;-68
2020/12/14 06:43:41;;;;;;;8.80;5.47;;;;;;;6.71;72.37;98851.66;5051061;28;20676;-68
2020/12/14 06:46:07;;;;;;;9.35;5.68;;;;;;;6.71;72.10;98862.34;5051410;28;20335;-68
2020/12/14 06:48:39;;;;;;;10.18;5.68;;;;;;;6.78;71.89;98852.19;5050558;28;20208;-68
2020/12/14 06:51:06;;;;;;;10.63;6.18;;;;;;;6.72;71.68;98858.75;5051524;28;20177;-68
2020/12/14 06:53:50;;;;;;;10.07;6.05;;;;;;;6.71;72.28;98854.31;5051282;28;20552;-67
2020/12/14 06:56:38;;;;;;;8.63;5.60;;;;;;;6.82;71.43;98857.28;5051030;28;20201;-68
2020/12/14 06:59:29;;;;;;;11.38;5.50;;;;;;;6.83;70.78;98852.81;5050778;28;20952;-68
2020/12/14 07:01:59;;;;;;;9.10;5.25;;;;;;;6.81;71.19;98858.25;5050158;28;20232;-67
2020/12/14 07:04:50;;;;;;;7.20;4.88;;;;;;;6.93;71.26;98866.56;5050516;28;20233;-68
2020/12/14 07:07:33;;;;;;;11.57;5.63;;;;;;;6.88;71.04;98875.69;5064215;28;20200;-67
2020/12/14 07:10:25;;;;;;;10.18;6.30;;;;;;;6.95;70.86;98886.06;5071282;28;20410;-68
2020/12/14 07:12:51;;;;;;;8.25;4.88;;;;;;;6.86;70.81;98880.25;5060916;28;20197;-68
2020/12/14 07:15:25;;;;;;;7.22;5.20;;;;;;;6.90;70.56;98891.69;5070598;28;20291;-68
2020/12/14 07:18:09;;;;;;;9.07;5.13;;;;;;;7.02;70.16;98879.44;5075094;28;20541;-68
2020/12/14 07:20:45;;;;;;;7.85;5.70;;;;;;;7.04;70.36;98883.75;5083269;28;20197;-68
2020/12/14 07:23:12;;;;;;;7.75;4.53;;;;;;;7.04;69.54;98885.56;5070938;28;20180;-68
2020/12/14 07:25:46;;;;;;;9.45;4.63;;;;;;;7.02;69.78;98882.09;5070848;28;20554;-68
2020/12/14 07:28:12;;;;;;;7.40;6.10;;;;;;;6.96;70.06;98885.09;5070711;28;20189;-68
2020/12/14 07:30:38;;;;;;;7.85;5.97;;;;;;;6.95;69.57;98891.41;5070129;28;20204;-68
2020/12/14 07:33:05;;;;;;;7.90;6.07;;;;;;;6.93;70.17;98887.97;5072785;28;20269;-68
2020/12/14 07:35:34;;;;;;;8.75;6.80;;;;;;;7.04;70.07;98889.09;5071380;28;20215;-68
2020/12/14 07:38:00;;;;;;;12.40;6.45;;;;;;;7.18;69.32;98888.34;5072876;28;20193;-67
2020/12/14 07:40:26;;;;;;;9.55;5.30;;;;;;;7.10;69.34;98895.94;5074034;28;20205;-67
2020/12/14 07:42:53;;;;;;;8.85;6.40;;;;;;;7.11;70.11;98900.34;5073848;28;20204;-68
2020/12/14 07:45:20;;;;;;;9.88;6.40;;;;;;;7.05;70.09;98904.19;5076677;28;20222;-67
2020/12/14 07:47:49;;;;;;;10.20;6.00;;;;;;;6.96;70.31;98896.66;5083418;28;20188;-66
2020/12/14 07:50:18;;;;;;;11.45;6.43;;;;;;;7.11;69.21;98900.34;5094281;28;20202;-68
2020/12/14 07:52:49;;;;;;;8.50;5.80;;;;;;;6.96;69.44;98903.84;5076023;28;20275;-68
2020/12/14 07:55:16;;;;;;;8.05;7.25;;;;;;;6.80;69.96;98911.84;5074431;28;20216;-68
2020/12/14 07:57:44;;;;;;;10.23;7.65;;;;;;;6.86;70.10;98908.84;5091271;28;20200;-68
2020/12/14 08:00:13;;;;;;;13.13;6.30;;;;;;;7.04;69.69;98902.47;5093895;28;20239;-68
2020/12/14 08:02:41;;;;;;;21.08;8.27;;;;;;;7.02;70.27;98903.53;5084152;28;20216;-67
2020/12/14 08:05:09;;;;;;;13.38;7.28;;;;;;;7.01;70.14;98912.47;5073897;28;20571;-69
2020/12/14 08:07:40;;;;;;;10.77;5.88;;;;;;;6.92;69.88;98905.84;5073736;28;20662;-68
2020/12/14 08:10:07;;;;;;;7.80;6.10;;;;;;;6.87;70.33;98908.75;5075410;28;20536;-67
2020/12/14 08:12:36;;;;;;;19.80;8.20;;;;;;;6.97;70.08;98910.94;5081802;28;20196;-68
2020/12/14 08:15:02;;;;;;;8.70;5.57;;;;;;;6.84;69.99;98913.41;5093730;28;20309;-68
2020/12/14 08:17:30;;;;;;;11.73;7.50;;;;;;;6.84;70.74;98916.94;5082461;28;20232;-68
2020/12/14 08:19:56;;;;;;;12.55;7.68;;;;;;;6.84;70.61;98916.09;5073530;28;20247;-67
2020/12/14 08:22:32;;;;;;;9.40;4.65;;;;;;;6.79;70.64;98910.97;5073131;28;20205;-69
2020/12/14 08:24:58;;;;;;;11.55;5.88;;;;;;;6.74;71.47;98907.69;5073320;28;20196;-66
2020/12/14 08:27:35;;;;;;;10.43;6.28;;;;;;;6.90;70.50;98905.06;5073311;28;20304;-67
2020/12/14 08:30:05;;;;;;;8.93;6.25;;;;;;;6.82;71.10;98909.94;5073458;28;20195;-67
2020/12/14 08:32:32;;;;;;;7.00;6.00;;;;;;;6.84;71.02;98900.03;5085619;28;20299;-67
2020/12/14 08:34:58;;;;;;;15.32;7.68;;;;;;;6.88;70.51;98905.13;5076852;28;20939;-68
2020/12/14 08:37:24;;;;;;;6.63;5.30;;;;;;;6.91;70.69;98905.91;5072921;28;20207;-67
2020/12/14 08:39:59;;;;;;;12.63;6.90;;;;;;;7.05;70.42;98898.84;5072920;28;20276;-66
2020/12/14 08:42:29;;;;;;;9.68;6.65;;;;;;;7.05;70.06;98895.31;5072926;28;20306;-68
2020/12/14 08:45:07;;;;;;;9.02;6.05;;;;;;;7.10;69.53;98899.47;5073280;28;20220;-67
2020/12/14 08:47:37;;;;;;;6.55;5.60;;;;;;;7.23;68.92;98902.31;5072969;28;20196;-67
2020/12/14 08:50:04;;;;;;;26.95;17.00;;;;;;;7.24;69.18;98903.22;5072649;28;20193;-68
2020/12/14 08:52:30;;;;;;;8.13;6.35;;;;;;;7.24;68.34;98908.56;5073070;28;20264;-68
2020/12/14 08:54:57;;;;;;;10.00;5.75;;;;;;;7.35;68.14;98910.63;5072692;28;20279;-67
2020/12/14 08:57:27;;;;;;;9.77;5.00;;;;;;;7.50;67.66;98917.81;5090881;28;20318;-67
2020/12/14 09:00:01;;;;;;;8.93;4.90;;;;;;;7.67;66.73;98912.34;5072125;28;20319;-68
2020/12/14 09:02:27;;;;;;;6.70;4.70;;;;;;;7.66;66.12;98913.28;5072716;28;20296;-67
2020/12/14 09:04:55;;;;;;;7.05;5.80;;;;;;;7.81;66.39;98913.38;5085524;28;20279;-68
2020/12/14 09:07:23;;;;;;;8.48;5.88;;;;;;;7.96;66.33;98920.53;5092985;28;20592;-68
2020/12/14 09:09:49;;;;;;;10.90;6.80;;;;;;;8.09;65.92;98920.66;5093118;28;20207;-67
2020/12/14 09:12:16;;;;;;;7.07;5.43;;;;;;;8.26;65.26;98925.06;5092511;28;20258;-67
2020/12/14 09:14:43;;;;;;;6.60;4.93;;;;;;;8.19;64.77;98929.06;5092595;28;20260;-68
2020/12/14 09:17:14;;;;;;;8.98;6.63;;;;;;;8.26;64.90;98935.78;5080711;28;20192;-68
2020/12/14 09:19:40;;;;;;;6.60;5.00;;;;;;;8.47;63.91;98934.53;5071959;28;20607;-68
2020/12/14 09:22:08;;;;;;;5.90;5.25;;;;;;;8.55;63.88;98947.50;5073179;28;20209;-69
2020/12/14 09:27:56;;;;;;;8.60;5.85;;;;;;;8.79;63.33;98944.25;5071923;28;20180;-68
2020/12/14 09:30:22;;;;;;;7.38;5.53;;;;;;;8.88;62.43;98943.69;5071928;28;20213;-68
2020/12/14 09:32:49;;;;;;;10.55;6.40;;;;;;;8.95;62.44;98947.72;5071804;28;20202;-68
2020/12/14 09:35:15;;;;;;;9.07;6.15;;;;;;;9.05;62.29;98940.84;5071337;28;20255;-68
2020/12/14 09:37:42;;;;;;;9.32;4.97;;;;;;;9.15;61.37;98950.03;5071642;28;20209;-68
2020/12/14 09:40:09;;;;;;;10.68;6.25;;;;;;;9.23;61.97;98949.56;5089323;28;20204;-67
2020/12/14 09:42:35;;;;;;;8.52;6.45;;;;;;;9.43;61.10;98953.69;5091850;28;20298;-68
2020/12/14 09:45:01;;;;;;;14.77;7.90;;;;;;;9.44;60.88;98946.47;5078017;28;20262;-66
2020/12/14 09:47:28;;;;;;;11.75;5.90;;;;;;;9.42;60.85;98948.41;5071387;28;20212;-67
2020/12/14 09:49:54;;;;;;;9.15;4.70;;;;;;;9.40;60.53;98953.84;5071575;28;20629;-66
2020/12/14 09:52:21;;;;;;;7.68;5.32;;;;;;;9.70;60.06;98948.34;5071893;28;20552;-67
2020/12/14 09:54:48;;;;;;;7.53;4.72;;;;;;;9.62;59.63;98956.03;5071603;28;20233;-67
2020/12/14 09:57:14;;;;;;;8.00;5.60;;;;;;;9.52;60.16;98953.09;5071773;28;20217;-66
2020/12/14 09:59:41;;;;;;;6.05;4.55;;;;;;;9.40;60.01;98949.34;5081565;28;20228;-67
2020/12/14 10:02:07;;;;;;;10.05;5.25;;;;;;;9.26;60.84;98943.13;5086768;28;20220;-67
2020/12/14 10:04:34;;;;;;;12.63;5.47;;;;;;;9.55;60.65;98933.22;5082842;28;20636;-67
2020/12/14 10:07:00;;;;;;;9.23;6.10;;;;;;;9.56;60.29;98935.78;5071712;28;20323;-67
2020/12/14 10:09:28;;;;;;;7.72;5.45;;;;;;;9.63;60.60;98938.09;5071151;28;20198;-67
2020/12/14 10:11:56;;;;;;;13.50;6.88;;;;;;;9.71;60.00;98931.25;5071688;28;20578;-68
2020/12/14 10:14:23;;;;;;;5.47;4.20;;;;;;;9.55;59.19;98934.06;5071207;28;20201;-69
2020/12/14 10:16:50;;;;;;;12.88;5.20;;;;;;;9.72;59.47;98943.75;5071754;28;20207;-67
2020/12/14 10:19:16;;;;;;;7.50;4.40;;;;;;;9.78;59.14;98934.41;5071554;28;20905;-67
2020/12/14 10:21:43;;;;;;;9.48;5.25;;;;;;;9.81;58.75;98934.19;5071015;28;20566;-70
2020/12/14 10:24:09;;;;;;;7.63;5.65;;;;;;;9.90;58.95;98941.66;5070979;28;20255;-67
2020/12/14 10:26:37;;;;;;;11.60;5.65;;;;;;;9.98;58.48;98938.47;5071568;28;20213;-68
2020/12/14 10:29:04;;;;;;;6.05;4.22;;;;;;;10.00;58.07;98945.47;5072223;28;20206;-69
2020/12/14 10:31:31;;;;;;;17.00;8.45;;;;;;;10.04;58.03;98940.78;5091638;28;20201;-68
2020/12/14 10:33:59;;;;;;;5.68;4.80;;;;;;;10.00;57.98;98944.63;5077973;28;20652;-68
2020/12/14 10:36:26;;;;;;;10.60;6.60;;;;;;;10.12;58.67;98941.09;5071073;28;20205;-67
2020/12/14 10:38:53;;;;;;;7.35;4.65;;;;;;;10.22;57.83;98939.53;5071065;28;20284;-68
2020/12/14 10:41:20;;;;;;;5.57;4.25;;;;;;;10.20;57.29;98937.91;5071705;28;20407;-67
2020/12/14 10:43:46;;;;;;;7.30;4.10;;;;;;;10.31;57.36;98931.81;5075086;28;20260;-68
2020/12/14 10:46:14;;;;;;;8.55;5.03;;;;;;;10.32;57.15;98930.88;5071495;28;20201;-68
2020/12/14 10:48:40;;;;;;;8.52;5.60;;;;;;;10.46;56.80;98932.63;5071335;28;20190;-70
2020/12/14 10:51:06;;;;;;;8.40;5.82;;;;;;;10.54;55.14;98928.44;5070974;28;20202;-68
2020/12/14 10:53:33;;;;;;;7.20;5.43;;;;;;;10.45;56.35;98923.69;5070929;28;20244;-68
2020/12/14 10:56:00;;;;;;;11.15;5.30;;;;;;;10.59;55.93;98926.28;5070939;28;20203;-68
2020/12/14 10:58:26;;;;;;;6.85;4.95;;;;;;;10.50;56.26;98916.16;5071232;28;20641;-67
2020/12/14 11:00:52;;;;;;;10.52;6.10;;;;;;;10.47;55.79;98920.88;5070816;28;20278;-68
2020/12/14 11:03:23;;;;;;;7.65;4.45;;;;;;;10.62;55.50;98918.00;5074955;28;20217;-68
2020/12/14 11:05:52;;;;;;;11.32;6.97;;;;;;;10.87;55.26;98920.81;5091390;28;20941;-68
2020/12/14 11:08:19;;;;;;;10.88;4.55;;;;;;;10.94;55.08;98912.19;5091438;28;20603;-68
2020/12/14 11:10:45;;;;;;;7.68;4.10;;;;;;;11.06;54.20;98908.63;5084775;28;20211;-68
2020/12/14 11:13:11;;;;;;;15.70;6.35;;;;;;;10.92;54.31;98906.06;5074180;28;20562;-68
2020/12/14 11:15:38;;;;;;;9.10;4.82;;;;;;;10.73;54.65;98894.84;5074693;28;20589;-67
2020/12/14 11:18:04;;;;;;;9.57;5.22;;;;;;;10.67;55.30;98900.66;5074965;28;20321;-68
2020/12/14 11:20:32;;;;;;;11.27;4.60;;;;;;;10.60;55.57;98898.38;5074667;28;20232;-68
2020/12/14 11:22:58;;;;;;;8.35;4.50;;;;;;;10.61;55.14;98894.75;5075037;28;20207;-68
2020/12/14 11:25:24;;;;;;;10.02;4.20;;;;;;;11.00;54.51;98884.81;5074461;28;20206;-69
2020/12/14 11:27:51;;;;;;;6.63;5.38;;;;;;;11.02;54.17;98879.34;5074526;28;20225;-67
2020/12/14 11:30:17;;;;;;;13.20;5.20;;;;;;;11.24;53.81;98897.53;5088632;28;20190;-69
2020/12/14 11:32:43;;;;;;;6.00;3.95;;;;;;;11.38;52.81;98894.69;5094552;28;20193;-68
2020/12/14 11:35:10;;;;;;;8.57;7.65;;;;;;;11.62;52.71;98883.94;5094620;28;20637;-68
2020/12/14 11:37:37;;;;;;;5.20;3.55;;;;;;;11.37;52.51;98879.47;5074312;28;20275;-68
2020/12/14 11:40:05;;;;;;;7.03;3.80;;;;;;;11.38;52.72;98878.50;5073949;28;20220;-68
2020/12/14 11:42:32;;;;;;;7.43;4.05;;;;;;;11.54;52.10;98877.41;5073903;28;20230;-68
2020/12/14 11:44:58;;;;;;;6.63;3.45;;;;;;;11.66;51.73;98876.47;5074960;28;20220;-67